Time;durP1;ratioP1;P1;durP2;ratioP2;P2;SDS_P1;SDS_P2;PMS_P1;PMS_P2;Temp;Humidity;BMP_temperature;BMP_pressure;BME280_temperature;BME280_humidity;BME280_pressure;Samples;Min_cycle;Max_cycle;Signal;HPM_P1;HPM_P2
2023/06/08 00:02:23;;;;;;;4.45;1.52;;;22.40;61.10;;;;;;7404385;19;19919;-70
2023/06/08 00:04:52;;;;;;;2.78;1.50;;;22.40;61.10;;;;;;7403666;19;19919;-70
2023/06/08 00:07:41;;;;;;;2.35;1.55;;;22.40;61.20;;;;;;7403590;19;19930;-70
2023/06/08 00:10:11;;;;;;;3.13;1.48;;;22.40;61.20;;;;;;7403769;19;19922;-71
2023/06/08 00:12:43;;;;;;;2.83;1.27;;;22.40;61.30;;;;;;7403016;19;19956;-70
2023/06/08 00:15:13;;;;;;;3.53;1.80;;;22.30;61.20;;;;;;7403732;19;19922;-70
2023/06/08 00:17:43;;;;;;;3.47;1.83;;;22.30;61.30;;;;;;7401696;19;19926;-71
2023/06/08 00:20:13;;;;;;;3.03;1.70;;;22.30;61.30;;;;;;7404713;19;19958;-70
2023/06/08 00:22:42;;;;;;;4.68;1.67;;;22.30;61.40;;;;;;7404092;19;19946;-71
2023/06/08 00:25:12;;;;;;;2.80;1.23;;;22.30;61.40;;;;;;7403095;19;20343;-70
2023/06/08 00:27:43;;;;;;;3.85;1.75;;;22.30;61.40;;;;;;7403731;19;19922;-70
2023/06/08 00:30:13;;;;;;;3.60;1.67;;;22.30;61.40;;;;;;7403148;19;19923;-70
2023/06/08 00:32:43;;;;;;;3.60;1.80;;;22.30;62.00;;;;;;7403277;19;20000;-70
2023/06/08 00:35:31;;;;;;;4.47;1.52;;;22.30;61.50;;;;;;7401668;19;19918;-70
2023/06/08 00:38:00;;;;;;;3.88;1.40;;;22.20;61.40;;;;;;7403127;19;20364;-70
2023/06/08 00:40:29;;;;;;;2.80;1.35;;;22.20;61.50;;;;;;7403710;19;19926;-70
2023/06/08 00:43:01;;;;;;;3.05;1.70;;;22.20;61.60;;;;;;7402461;19;19919;-70
2023/06/08 00:45:31;;;;;;;4.70;2.03;;;22.20;61.60;;;;;;7402574;19;19928;-71
2023/06/08 00:48:00;;;;;;;3.92;1.60;;;22.20;61.60;;;;;;7401919;19;19994;-70
2023/06/08 00:50:50;;;;;;;2.35;1.35;;;22.20;61.70;;;;;;7401601;19;19922;-70
2023/06/08 00:53:19;;;;;;;3.63;1.67;;;22.20;61.70;;;;;;7403407;19;19929;-71
2023/06/08 00:56:11;;;;;;;3.30;1.30;;;22.20;61.70;;;;;;7400776;19;19929;-71
2023/06/08 00:58:46;;;;;;;3.20;1.65;;;22.20;61.80;;;;;;7403176;19;19911;-71
2023/06/08 01:01:38;;;;;;;3.15;1.38;;;22.10;61.70;;;;;;7400307;19;20380;-71
2023/06/08 01:04:14;;;;;;;3.58;1.50;;;22.10;61.70;;;;;;7403028;19;19934;-71
2023/06/08 01:06:54;;;;;;;2.80;1.55;;;22.10;61.80;;;;;;7401963;19;19918;-71
2023/06/08 01:09:32;;;;;;;4.28;1.80;;;22.10;61.90;;;;;;7399794;19;20360;-71
2023/06/08 01:12:16;;;;;;;2.35;1.20;;;22.10;61.90;;;;;;7396134;19;20015;-71
2023/06/08 01:14:53;;;;;;;3.75;1.75;;;22.10;61.90;;;;;;7400662;19;20468;-71
2023/06/08 01:17:32;;;;;;;2.85;1.55;;;22.10;61.90;;;;;;7398259;19;20359;-71
2023/06/08 01:20:24;;;;;;;4.28;1.23;;;22.00;61.90;;;;;;7400846;19;20356;-71
2023/06/08 01:23:20;;;;;;;2.72;1.15;;;22.00;61.90;;;;;;7400561;19;19923;-71
2023/06/08 01:25:56;;;;;;;3.20;1.50;;;22.10;62.00;;;;;;7401794;19;19970;-71
2023/06/08 01:28:28;;;;;;;3.28;1.10;;;22.00;62.00;;;;;;7402282;19;19922;-71
2023/06/08 01:30:58;;;;;;;4.03;1.42;;;22.00;62.00;;;;;;7401481;19;19922;-71
2023/06/08 01:33:31;;;;;;;3.25;1.42;;;22.00;62.00;;;;;;7400758;19;20327;-71
2023/06/08 01:36:07;;;;;;;2.55;1.30;;;22.00;62.10;;;;;;7403131;19;19948;-71
2023/06/08 01:38:41;;;;;;;;;;;22.00;62.10;;;;;;7409596;19;20352;-71
2023/06/08 01:41:20;;;;;;;2.75;1.20;;;22.00;62.10;;;;;;7406691;19;19943;-71
2023/06/08 01:43:52;;;;;;;3.60;1.73;;;22.00;62.20;;;;;;7391397;19;19929;-71
2023/06/08 01:46:24;;;;;;;3.40;1.40;;;22.00;62.10;;;;;;7406221;19;19978;-71
2023/06/08 01:48:54;;;;;;;3.05;1.23;;;21.90;62.10;;;;;;7407825;19;19925;-71
2023/06/08 01:51:25;;;;;;;4.80;1.65;;;22.00;62.20;;;;;;7409371;19;19914;-71
2023/06/08 01:54:02;;;;;;;2.83;1.20;;;21.90;62.20;;;;;;7407495;19;19938;-71
2023/06/08 01:56:35;;;;;;;3.42;1.42;;;21.90;62.20;;;;;;7404334;19;19922;-71
2023/06/08 01:59:04;;;;;;;2.35;1.20;;;21.90;62.20;;;;;;7407862;19;19921;-71
2023/06/08 02:01:33;;;;;;;;;;;21.90;62.20;;;;;;7410210;19;19923;-71
2023/06/08 02:04:03;;;;;;;2.78;1.27;;;21.90;62.30;;;;;;7408828;19;19939;-71
2023/06/08 02:06:32;;;;;;;3.17;1.23;;;21.90;62.30;;;;;;7406827;19;19915;-71
2023/06/08 02:09:02;;;;;;;3.25;1.58;;;21.90;62.30;;;;;;7408736;19;19922;-71
2023/06/08 02:11:34;;;;;;;2.67;1.70;;;21.90;62.30;;;;;;7408209;19;19926;-71
2023/06/08 02:14:03;;;;;;;3.20;1.30;;;21.90;62.30;;;;;;7403586;19;19933;-71
2023/06/08 02:16:33;;;;;;;2.63;1.45;;;21.90;62.40;;;;;;7406819;19;19914;-71
2023/06/08 02:19:01;;;;;;;;;;;21.90;62.40;;;;;;7411250;19;19974;-69
2023/06/08 02:21:31;;;;;;;3.00;1.42;;;21.80;62.30;;;;;;7407436;19;19915;-69
2023/06/08 02:24:01;;;;;;;2.70;1.17;;;21.80;62.40;;;;;;7404737;19;20285;-69
2023/06/08 02:26:30;;;;;;;2.15;1.25;;;21.80;62.40;;;;;;7408958;19;19921;-69
2023/06/08 02:29:02;;;;;;;2.90;1.10;;;21.80;62.40;;;;;;7406623;19;19918;-69
2023/06/08 02:31:32;;;;;;;2.35;1.20;;;21.80;62.40;;;;;;7408328;19;20277;-71
2023/06/08 02:34:01;;;;;;;2.70;1.10;;;21.70;62.40;;;;;;7403813;19;19926;-70
2023/06/08 02:36:31;;;;;;;2.40;1.30;;;21.80;62.50;;;;;;7407043;19;19974;-70
2023/06/08 02:39:01;;;;;;;2.35;1.33;;;21.80;62.50;;;;;;7406340;19;19923;-70
2023/06/08 02:41:30;;;;;;;2.97;1.40;;;21.80;62.50;;;;;;7407887;19;19921;-70
2023/06/08 02:43:59;;;;;;;3.60;1.23;;;21.70;62.50;;;;;;7406714;19;19919;-70
2023/06/08 02:46:32;;;;;;;2.42;1.23;;;21.70;62.50;;;;;;7406863;19;20300;-70
2023/06/08 02:49:02;;;;;;;3.38;1.35;;;21.70;62.50;;;;;;7402338;19;20332;-70
2023/06/08 02:51:35;;;;;;;2.33;1.10;;;21.70;62.60;;;;;;7403790;19;19919;-70
2023/06/08 02:54:07;;;;;;;3.28;1.80;;;21.70;62.60;;;;;;7407195;19;19949;-70
2023/06/08 02:56:37;;;;;;;3.38;1.70;;;21.70;62.60;;;;;;7407237;19;19930;-71
2023/06/08 02:59:06;;;;;;;3.35;1.27;;;21.70;62.60;;;;;;7406948;19;19962;-71
2023/06/08 03:01:53;;;;;;;2.65;1.42;;;21.70;62.60;;;;;;7407821;19;19911;-70
2023/06/08 03:04:23;;;;;;;3.28;1.55;;;21.70;62.60;;;;;;7406956;19;19923;-70
2023/06/08 03:06:56;;;;;;;3.95;1.25;;;21.70;62.70;;;;;;7405227;19;20426;-70
2023/06/08 03:09:28;;;;;;;3.28;1.05;;;21.70;62.70;;;;;;7405916;19;19922;-70
2023/06/08 03:11:57;;;;;;;3.53;1.45;;;21.70;62.80;;;;;;7404933;19;19986;-70
2023/06/08 03:14:28;;;;;;;3.70;1.17;;;21.70;62.70;;;;;;7406200;19;20003;-70
2023/06/08 03:17:01;;;;;;;2.28;1.10;;;21.60;62.70;;;;;;7404885;19;19926;-70
2023/06/08 03:19:31;;;;;;;2.38;1.42;;;21.60;62.70;;;;;;7406339;19;19922;-70
2023/06/08 03:22:02;;;;;;;2.47;1.40;;;21.60;62.70;;;;;;7405659;19;19953;-71
2023/06/08 03:24:32;;;;;;;2.53;1.27;;;21.60;62.70;;;;;;7406382;19;19925;-70
2023/06/08 03:27:01;;;;;;;3.13;1.10;;;21.60;62.70;;;;;;7405107;19;20372;-70
2023/06/08 03:29:31;;;;;;;;;;;21.60;62.80;;;;;;7409106;19;19926;-70
2023/06/08 03:32:02;;;;;;;2.60;1.30;;;21.60;62.80;;;;;;7405483;19;20241;-70
2023/06/08 03:34:37;;;;;;;2.85;1.10;;;21.60;62.80;;;;;;7405530;19;19923;-71
2023/06/08 03:37:06;;;;;;;2.20;0.88;;;21.60;62.80;;;;;;7404276;19;20426;-70
2023/06/08 03:39:35;;;;;;;3.05;1.20;;;21.60;62.80;;;;;;7403571;19;19944;-71
2023/06/08 03:42:05;;;;;;;2.85;1.42;;;21.60;62.90;;;;;;7404436;19;20300;-70
2023/06/08 03:44:34;;;;;;;2.35;1.08;;;21.60;62.90;;;;;;7404879;19;19918;-70
2023/06/08 03:47:08;;;;;;;3.20;1.20;;;21.60;62.90;;;;;;7406131;19;20339;-70
2023/06/08 03:49:44;;;;;;;3.03;1.42;;;21.50;62.90;;;;;;7403462;19;19930;-70
2023/06/08 03:52:13;;;;;;;3.33;1.63;;;21.50;62.90;;;;;;7405811;19;20356;-70
2023/06/08 03:54:42;;;;;;;3.10;1.45;;;21.60;62.90;;;;;;7404736;19;19918;-70
2023/06/08 03:57:12;;;;;;;3.00;1.27;;;21.60;62.90;;;;;;7405496;19;19910;-70
2023/06/08 03:59:41;;;;;;;2.88;1.48;;;21.50;62.90;;;;;;7404241;19;19929;-71
2023/06/08 04:02:12;;;;;;;2.97;0.95;;;21.50;62.90;;;;;;7405055;19;19958;-70
2023/06/08 04:04:44;;;;;;;1.95;1.08;;;21.50;62.90;;;;;;7403880;19;19919;-70
2023/06/08 04:07:13;;;;;;;2.10;0.93;;;21.50;62.90;;;;;;7406212;19;19923;-70
2023/06/08 04:09:43;;;;;;;2.45;1.10;;;21.50;62.90;;;;;;7402935;19;19926;-70
2023/06/08 04:12:12;;;;;;;2.55;1.15;;;21.50;62.90;;;;;;7405237;19;19914;-70
2023/06/08 04:14:41;;;;;;;;;;;21.50;62.90;;;;;;7406117;19;19919;-70
2023/06/08 04:17:13;;;;;;;2.22;1.35;;;21.50;63.00;;;;;;7404201;19;19964;-71
2023/06/08 04:19:42;;;;;;;2.67;1.27;;;21.50;62.90;;;;;;7404286;19;19922;-71
2023/06/08 04:22:11;;;;;;;4.55;1.38;;;21.50;63.00;;;;;;7406153;19;19915;-70
2023/06/08 04:24:41;;;;;;;2.38;0.88;;;21.50;63.00;;;;;;7404641;19;19925;-70
2023/06/08 04:27:10;;;;;;;3.40;1.52;;;21.50;63.00;;;;;;7403068;19;19946;-70
2023/06/08 04:29:40;;;;;;;;;;;21.50;63.00;;;;;;7405826;19;19922;-70
2023/06/08 04:32:32;;;;;;;2.65;1.00;;;21.50;63.00;;;;;;7400331;19;19990;-70
2023/06/08 04:35:21;;;;;;;2.55;1.20;;;21.50;63.00;;;;;;7403589;19;19937;-70
2023/06/08 04:38:15;;;;;;;2.50;1.00;;;21.50;63.00;;;;;;7402103;19;20341;-70
2023/06/08 04:41:07;;;;;;;2.53;1.25;;;21.50;63.10;;;;;;7402431;19;20344;-70
2023/06/08 04:44:01;;;;;;;2.10;1.10;;;21.50;63.00;;;;;;7401004;19;20031;-70
2023/06/08 04:46:50;;;;;;;2.60;1.02;;;21.50;63.10;;;;;;7400999;19;20348;-70
2023/06/08 04:49:42;;;;;;;3.25;1.10;;;21.50;63.00;;;;;;7401146;19;19921;-70
2023/06/08 04:52:40;;;;;;;2.90;1.27;;;21.50;63.10;;;;;;7400912;19;19921;-70
2023/06/08 04:55:29;;;;;;;3.38;1.02;;;21.50;63.10;;;;;;7401464;19;19922;-70
2023/06/08 04:57:58;;;;;;;1.92;1.45;;;21.50;63.10;;;;;;7403638;19;19942;-70
2023/06/08 05:00:27;;;;;;;2.15;1.40;;;21.50;63.10;;;;;;7402416;19;19970;-70
2023/06/08 05:02:56;;;;;;;2.83;1.17;;;21.50;63.10;;;;;;7402397;19;19922;-70
2023/06/08 05:05:28;;;;;;;2.45;1.00;;;21.50;63.00;;;;;;7403146;19;19929;-70
2023/06/08 05:07:57;;;;;;;1.92;1.23;;;21.50;63.00;;;;;;7403296;19;20363;-70
2023/06/08 05:10:26;;;;;;;3.15;1.17;;;21.50;63.00;;;;;;7402178;19;19998;-70
2023/06/08 05:12:56;;;;;;;2.75;1.33;;;21.50;63.00;;;;;;7401419;19;19922;-70
2023/06/08 05:15:26;;;;;;;2.03;1.05;;;21.50;63.10;;;;;;7401727;19;20307;-70
2023/06/08 05:17:55;;;;;;;3.13;1.58;;;21.50;63.00;;;;;;7400997;19;19929;-71
2023/06/08 05:20:29;;;;;;;2.15;1.20;;;21.50;63.00;;;;;;7401526;19;21800;-70
2023/06/08 05:22:58;;;;;;;2.92;1.05;;;21.60;63.10;;;;;;7401300;19;21721;-70
2023/06/08 05:25:29;;;;;;;2.75;1.33;;;21.50;63.00;;;;;;7394862;19;19922;-71
2023/06/08 05:28:01;;;;;;;2.45;1.05;;;21.50;63.10;;;;;;7381576;19;19927;-70
2023/06/08 05:30:30;;;;;;;3.22;1.45;;;21.60;63.10;;;;;;7395548;19;19926;-70
2023/06/08 05:33:00;;;;;;;2.85;1.65;;;21.60;63.00;;;;;;7398770;19;19929;-70
2023/06/08 05:35:31;;;;;;;;;;;21.60;63.10;;;;;;7404045;19;20364;-70
2023/06/08 05:38:00;;;;;;;2.42;1.17;;;21.50;63.00;;;;;;7401639;19;20729;-70
2023/06/08 05:40:29;;;;;;;2.60;1.50;;;21.60;63.00;;;;;;7397570;19;19919;-70
2023/06/08 05:42:58;;;;;;;2.60;0.98;;;21.60;63.70;;;;;;7402150;19;19967;-70
2023/06/08 05:45:28;;;;;;;2.47;1.05;;;21.60;63.00;;;;;;7399617;19;20388;-70
2023/06/08 05:47:56;;;;;;;2.50;1.08;;;21.60;63.00;;;;;;7402567;19;19929;-70
2023/06/08 05:50:26;;;;;;;2.38;1.08;;;21.60;63.00;;;;;;7399147;19;19914;-71
2023/06/08 05:52:58;;;;;;;2.45;1.08;;;21.60;63.00;;;;;;7398032;19;19998;-70
2023/06/08 05:55:27;;;;;;;2.08;0.93;;;21.60;63.00;;;;;;7397811;19;19931;-70
2023/06/08 05:57:56;;;;;;;2.72;1.15;;;21.60;63.00;;;;;;7399987;19;20393;-70
2023/06/08 06:00:25;;;;;;;2.45;0.93;;;21.60;62.90;;;;;;7376358;19;19926;-69
2023/06/08 06:02:54;;;;;;;2.42;1.13;;;21.60;63.10;;;;;;7392940;19;20290;-70
2023/06/08 06:05:23;;;;;;;2.78;1.10;;;21.60;63.00;;;;;;7399734;19;19947;-70
2023/06/08 06:07:52;;;;;;;2.25;1.05;;;21.60;63.00;;;;;;7397819;19;19926;-70
2023/06/08 06:10:24;;;;;;;3.20;1.10;;;21.60;63.00;;;;;;7398655;19;19923;-70
2023/06/08 06:12:53;;;;;;;2.25;1.02;;;21.70;63.10;;;;;;7395153;19;19923;-69
2023/06/08 06:15:22;;;;;;;3.15;1.08;;;21.70;63.00;;;;;;7383355;19;20263;-70
2023/06/08 06:17:51;;;;;;;2.58;1.15;;;21.70;63.00;;;;;;7391791;19;19922;-69
2023/06/08 06:20:20;;;;;;;2.92;1.10;;;21.70;63.30;;;;;;7391009;19;19943;-73
2023/06/08 06:23:08;;;;;;;3.45;1.08;;;21.70;63.90;;;;;;7393901;19;19915;-73
2023/06/08 06:25:40;;;;;;;3.33;1.42;;;21.70;63.50;;;;;;7402898;19;19919;-71
2023/06/08 06:28:09;;;;;;;3.78;1.05;;;21.70;63.50;;;;;;7406703;19;19919;-72
2023/06/08 06:30:38;;;;;;;2.92;1.10;;;21.70;63.50;;;;;;7404055;19;19957;-71
2023/06/08 06:33:07;;;;;;;;;;;21.70;63.50;;;;;;7409282;19;19927;-71
2023/06/08 06:35:36;;;;;;;3.28;1.30;;;21.70;63.40;;;;;;7405572;19;20392;-71
2023/06/08 06:38:05;;;;;;;3.90;1.10;;;21.70;63.40;;;;;;7406536;19;19918;-71
2023/06/08 06:40:34;;;;;;;3.55;1.08;;;21.80;63.50;;;;;;7406087;19;20350;-71
2023/06/08 06:43:06;;;;;;;2.45;0.93;;;21.80;63.50;;;;;;7405260;19;19994;-71
2023/06/08 06:45:38;;;;;;;3.33;1.00;;;21.80;63.50;;;;;;7405646;19;19924;-71
2023/06/08 06:48:12;;;;;;;2.35;1.05;;;21.80;63.40;;;;;;7405489;19;19923;-71
2023/06/08 06:50:41;;;;;;;2.10;1.17;;;21.80;63.50;;;;;;7406148;19;19919;-71
2023/06/08 06:53:12;;;;;;;2.30;1.52;;;21.80;63.40;;;;;;7405720;19;19919;-71
2023/06/08 06:55:44;;;;;;;2.58;1.17;;;21.80;63.40;;;;;;7404255;19;19926;-71
2023/06/08 06:58:16;;;;;;;3.58;1.23;;;21.80;63.40;;;;;;7407029;19;19922;-71
2023/06/08 07:00:45;;;;;;;2.42;1.13;;;21.80;63.30;;;;;;7406512;19;19982;-71
2023/06/08 07:03:16;;;;;;;3.00;1.15;;;21.80;63.40;;;;;;7407489;19;19925;-71
2023/06/08 07:05:45;;;;;;;3.53;0.95;;;21.90;63.30;;;;;;7406883;19;20228;-71
2023/06/08 07:08:14;;;;;;;3.25;1.00;;;21.80;63.20;;;;;;7407146;19;20618;-71
2023/06/08 07:10:43;;;;;;;2.50;0.85;;;21.90;63.30;;;;;;7406204;19;19978;-71
2023/06/08 07:13:15;;;;;;;2.35;0.95;;;21.90;63.30;;;;;;7404057;19;19922;-72
2023/06/08 07:15:48;;;;;;;2.03;0.90;;;21.90;63.30;;;;;;7404223;19;20344;-71
2023/06/08 07:18:18;;;;;;;2.47;0.80;;;21.90;63.30;;;;;;7404568;19;19919;-71
2023/06/08 07:20:47;;;;;;;3.28;1.63;;;21.90;63.30;;;;;;7406319;19;19927;-72
2023/06/08 07:23:16;;;;;;;2.67;1.20;;;21.90;63.30;;;;;;7403571;19;19978;-71
2023/06/08 07:25:45;;;;;;;3.20;1.52;;;21.90;63.30;;;;;;7404888;19;19919;-72
2023/06/08 07:28:18;;;;;;;3.67;1.00;;;21.90;63.30;;;;;;7401205;19;19922;-71
2023/06/08 07:30:49;;;;;;;2.60;0.93;;;21.90;63.30;;;;;;7403505;19;20866;-71
2023/06/08 07:33:20;;;;;;;2.30;1.15;;;21.90;63.30;;;;;;7405637;19;20353;-71
2023/06/08 07:35:50;;;;;;;3.03;1.05;;;21.90;63.30;;;;;;7405025;19;20311;-71
2023/06/08 07:38:19;;;;;;;2.50;1.00;;;21.90;63.30;;;;;;7403763;19;19927;-71
2023/06/08 07:40:48;;;;;;;2.25;1.00;;;21.90;63.30;;;;;;7405979;19;19986;-71
2023/06/08 07:43:22;;;;;;;2.70;1.00;;;21.90;63.30;;;;;;7403719;19;20502;-71
2023/06/08 07:45:55;;;;;;;3.08;1.50;;;21.90;63.30;;;;;;7405604;19;19922;-71
2023/06/08 07:48:28;;;;;;;2.30;0.93;;;22.00;63.30;;;;;;7404862;19;20347;-71
2023/06/08 07:50:57;;;;;;;2.88;1.00;;;22.00;63.30;;;;;;7407034;19;19946;-71
2023/06/08 07:53:27;;;;;;;3.15;1.25;;;22.00;63.20;;;;;;7404528;19;19930;-72
2023/06/08 07:55:56;;;;;;;2.28;1.13;;;22.00;63.20;;;;;;7402438;19;19939;-72
2023/06/08 07:58:28;;;;;;;2.65;0.88;;;22.00;63.30;;;;;;7404239;19;19918;-71
2023/06/08 08:00:57;;;;;;;1.73;0.82;;;22.00;63.10;;;;;;7401740;19;20042;-71
2023/06/08 08:03:26;;;;;;;2.75;1.15;;;22.10;63.20;;;;;;7403382;19;19974;-71
2023/06/08 08:05:59;;;;;;;3.22;1.02;;;22.00;63.20;;;;;;7403556;19;20374;-71
2023/06/08 08:08:28;;;;;;;1.90;0.80;;;22.10;63.20;;;;;;7403762;19;19926;-71
2023/06/08 08:10:57;;;;;;;1.95;0.98;;;22.10;63.20;;;;;;7399774;19;19926;-71
2023/06/08 08:13:34;;;;;;;1.95;0.82;;;22.10;63.20;;;;;;7402473;19;19974;-71
2023/06/08 08:16:03;;;;;;;2.50;1.17;;;22.10;63.20;;;;;;7402140;19;19936;-71
2023/06/08 08:18:32;;;;;;;2.10;0.80;;;22.10;63.20;;;;;;7405074;19;19935;-71
2023/06/08 08:21:02;;;;;;;3.08;1.00;;;22.10;63.20;;;;;;7400945;19;19922;-71
2023/06/08 08:23:32;;;;;;;2.47;1.20;;;22.10;63.20;;;;;;7401301;19;19918;-71
2023/06/08 08:26:01;;;;;;;2.95;0.90;;;22.10;63.10;;;;;;7403401;19;19982;-71
2023/06/08 08:28:33;;;;;;;2.72;0.98;;;22.20;63.10;;;;;;7401517;19;20098;-71
2023/06/08 08:31:05;;;;;;;2.63;1.05;;;22.20;63.10;;;;;;7405902;19;20256;-71
2023/06/08 08:33:34;;;;;;;3.85;1.00;;;22.20;63.10;;;;;;7402854;19;19949;-71
2023/06/08 08:36:03;;;;;;;2.75;1.13;;;22.20;63.10;;;;;;7404414;19;19919;-71
2023/06/08 08:38:32;;;;;;;2.63;1.38;;;22.20;63.10;;;;;;7402268;19;19924;-71
2023/06/08 08:41:07;;;;;;;2.40;0.98;;;22.20;63.10;;;;;;7406341;19;19924;-71
2023/06/08 08:43:49;;;;;;;2.30;1.05;;;22.20;63.10;;;;;;7402644;19;19927;-71
2023/06/08 08:46:19;;;;;;;2.75;1.23;;;22.20;63.00;;;;;;7401691;19;19915;-71
2023/06/08 08:48:48;;;;;;;2.85;1.10;;;22.30;63.10;;;;;;7403640;19;19925;-71
2023/06/08 08:51:20;;;;;;;2.15;0.88;;;22.30;63.10;;;;;;7405014;19;19974;-71
2023/06/08 08:53:51;;;;;;;2.05;1.05;;;22.30;63.10;;;;;;7403106;19;20343;-71
2023/06/08 08:56:22;;;;;;;1.80;0.82;;;22.30;63.00;;;;;;7404712;19;19943;-71
2023/06/08 08:58:54;;;;;;;2.58;1.10;;;22.30;62.90;;;;;;7403125;19;19947;-71
2023/06/08 09:01:25;;;;;;;2.17;0.73;;;22.30;62.90;;;;;;7402042;19;19918;-71
2023/06/08 09:03:55;;;;;;;2.10;0.90;;;22.30;62.90;;;;;;7403270;19;19914;-72
2023/06/08 09:06:24;;;;;;;2.65;0.93;;;22.40;63.00;;;;;;7404182;19;20348;-71
2023/06/08 09:08:53;;;;;;;2.08;0.95;;;22.40;63.00;;;;;;7403076;19;19922;-71
2023/06/08 09:11:23;;;;;;;1.95;0.90;;;22.40;63.00;;;;;;7401288;19;20373;-71
2023/06/08 09:14:08;;;;;;;2.00;0.95;;;22.40;63.00;;;;;;7402529;19;19942;-71
2023/06/08 09:16:48;;;;;;;2.65;1.02;;;22.40;63.00;;;;;;7402422;19;19925;-71
2023/06/08 09:19:17;;;;;;;2.50;1.00;;;22.40;63.00;;;;;;7402569;19;19923;-71
2023/06/08 09:21:48;;;;;;;3.35;1.08;;;22.40;62.90;;;;;;7402305;19;19970;-71
2023/06/08 09:24:24;;;;;;;2.55;1.20;;;22.50;63.00;;;;;;7401909;19;19930;-71
2023/06/08 09:26:56;;;;;;;2.80;0.90;;;22.40;62.90;;;;;;7402472;19;19915;-72
2023/06/08 09:29:40;;;;;;;2.17;0.80;;;22.50;63.00;;;;;;7400932;19;19923;-72
2023/06/08 09:32:13;;;;;;;2.33;0.98;;;22.50;62.90;;;;;;7402369;19;19951;-71
2023/06/08 09:34:53;;;;;;;2.85;1.00;;;22.50;62.90;;;;;;7400021;19;19918;-71
2023/06/08 09:37:29;;;;;;;2.63;1.27;;;22.50;62.80;;;;;;7399853;19;19922;-71
2023/06/08 09:39:59;;;;;;;2.42;1.02;;;22.50;62.90;;;;;;7401279;19;20544;-71
2023/06/08 09:42:44;;;;;;;2.20;0.80;;;22.60;62.80;;;;;;7401085;19;20277;-71
2023/06/08 09:45:17;;;;;;;2.30;0.98;;;22.60;62.80;;;;;;7401049;19;19923;-71
2023/06/08 09:47:47;;;;;;;2.60;1.02;;;22.60;62.80;;;;;;7401894;19;19974;-71
2023/06/08 09:50:18;;;;;;;2.28;1.02;;;22.60;62.80;;;;;;7400236;19;19925;-71
2023/06/08 09:52:50;;;;;;;3.05;1.00;;;22.60;62.80;;;;;;7400671;19;19915;-74
2023/06/08 09:55:21;;;;;;;2.40;1.13;;;22.70;62.80;;;;;;7371896;19;19922;-72
2023/06/08 09:57:52;;;;;;;3.28;1.40;;;22.70;62.80;;;;;;7380728;19;19925;-71
2023/06/08 10:00:25;;;;;;;3.90;1.33;;;22.70;62.90;;;;;;7399282;19;19919;-71
2023/06/08 10:03:04;;;;;;;2.38;1.05;;;22.70;62.80;;;;;;7406306;19;20334;-71
2023/06/08 10:05:35;;;;;;;1.98;0.88;;;22.70;62.80;;;;;;7407306;19;19922;-71
2023/06/08 10:08:05;;;;;;;2.33;1.02;;;22.80;62.90;;;;;;7407415;19;19933;-70
2023/06/08 10:10:39;;;;;;;2.58;0.90;;;22.80;62.90;;;;;;7406618;19;20264;-71
2023/06/08 10:13:10;;;;;;;2.45;0.82;;;22.80;62.90;;;;;;7407302;19;20263;-71
2023/06/08 10:15:42;;;;;;;3.33;1.08;;;22.80;62.90;;;;;;7405819;19;19922;-71
2023/06/08 10:18:12;;;;;;;2.72;1.08;;;22.90;62.90;;;;;;7401433;19;19922;-71
2023/06/08 10:20:42;;;;;;;;;;;22.90;62.90;;;;;;7404381;19;19978;-71
2023/06/08 10:23:11;;;;;;;2.35;0.95;;;22.90;62.90;;;;;;7400619;19;19974;-70
2023/06/08 10:25:41;;;;;;;2.78;1.17;;;22.90;62.90;;;;;;7405779;19;20348;-70
2023/06/08 10:28:14;;;;;;;3.55;1.27;;;22.90;62.90;;;;;;7403218;19;19922;-72
2023/06/08 10:30:45;;;;;;;3.35;1.25;;;23.00;62.90;;;;;;7406463;19;19986;-70
2023/06/08 10:33:16;;;;;;;3.38;1.20;;;23.00;62.90;;;;;;7406809;19;19943;-74
2023/06/08 10:36:03;;;;;;;2.67;0.95;;;23.00;62.90;;;;;;7407320;19;19939;-72
2023/06/08 10:38:33;;;;;;;3.08;0.90;;;23.10;63.00;;;;;;7406572;19;19935;-72
2023/06/08 10:41:02;;;;;;;2.20;1.05;;;23.10;63.00;;;;;;7405468;19;19949;-72
2023/06/08 10:43:31;;;;;;;3.20;0.95;;;23.10;63.00;;;;;;7406047;19;19919;-71
2023/06/08 10:46:03;;;;;;;2.15;1.15;;;23.10;63.00;;;;;;7407304;19;19921;-71
2023/06/08 10:48:39;;;;;;;2.85;1.10;;;23.10;63.00;;;;;;7403892;19;19918;-71
2023/06/08 10:51:13;;;;;;;3.97;1.10;;;23.20;63.00;;;;;;7402317;19;20624;-71
2023/06/08 10:53:43;;;;;;;3.60;1.13;;;23.20;63.00;;;;;;7405274;19;19940;-72
2023/06/08 10:56:12;;;;;;;2.70;0.98;;;23.20;63.00;;;;;;7404576;19;20706;-72
2023/06/08 10:58:54;;;;;;;2.15;0.90;;;23.20;63.00;;;;;;7403977;19;19911;-71
2023/06/08 11:01:32;;;;;;;2.22;0.93;;;23.30;63.00;;;;;;7398508;19;20403;-74
2023/06/08 11:04:01;;;;;;;2.15;1.13;;;23.30;63.00;;;;;;7398041;19;19963;-73
2023/06/08 11:06:31;;;;;;;2.35;1.23;;;23.30;63.00;;;;;;7404491;19;19992;-74
2023/06/08 11:09:03;;;;;;;2.88;1.45;;;23.30;63.00;;;;;;7401903;19;19930;-74
2023/06/08 11:11:34;;;;;;;2.88;1.10;;;23.40;63.00;;;;;;7401649;19;19926;-73
2023/06/08 11:14:03;;;;;;;2.85;1.25;;;23.40;63.00;;;;;;7402194;19;19926;-73
2023/06/08 11:16:35;;;;;;;3.13;1.25;;;23.40;63.00;;;;;;7403313;19;19926;-73
2023/06/08 11:19:04;;;;;;;2.80;1.38;;;23.40;62.90;;;;;;7403067;19;20334;-73
2023/06/08 11:21:33;;;;;;;2.95;1.15;;;23.50;62.90;;;;;;7399265;19;19986;-73
2023/06/08 11:24:04;;;;;;;2.35;1.10;;;23.50;62.80;;;;;;7401508;19;19990;-73
2023/06/08 11:26:33;;;;;;;2.90;1.02;;;23.60;62.80;;;;;;7399780;19;19934;-70
2023/06/08 11:29:04;;;;;;;2.83;1.00;;;23.60;62.80;;;;;;7398856;19;19929;-72
2023/06/08 11:31:40;;;;;;;3.33;1.08;;;23.60;62.80;;;;;;7405113;19;19918;-72
2023/06/08 11:34:11;;;;;;;2.88;1.38;;;23.60;62.80;;;;;;7405516;19;19923;-72
2023/06/08 11:36:42;;;;;;;2.83;1.13;;;23.70;62.70;;;;;;7405658;19;19914;-72
2023/06/08 11:39:11;;;;;;;2.58;0.95;;;23.70;62.70;;;;;;7403872;19;19930;-72
2023/06/08 11:41:46;;;;;;;2.75;1.08;;;23.80;62.70;;;;;;7403231;19;19947;-72
2023/06/08 11:44:15;;;;;;;2.85;1.05;;;23.80;62.60;;;;;;7404097;19;19914;-72
2023/06/08 11:46:47;;;;;;;3.47;0.80;;;23.80;62.60;;;;;;7405549;19;19922;-72
2023/06/08 11:49:16;;;;;;;2.45;1.15;;;23.90;62.50;;;;;;7404296;19;19943;-72
2023/06/08 11:51:49;;;;;;;2.65;1.25;;;23.90;62.50;;;;;;7404633;19;19927;-72
2023/06/08 11:54:20;;;;;;;2.10;1.00;;;23.90;63.10;;;;;;7404138;19;19918;-72
2023/06/08 11:56:49;;;;;;;3.45;1.08;;;23.90;62.50;;;;;;7404662;19;19918;-72
2023/06/08 11:59:19;;;;;;;2.17;0.88;;;23.90;62.40;;;;;;7403855;19;19927;-72
2023/06/08 12:02:01;;;;;;;2.92;1.38;;;24.00;62.40;;;;;;7402641;19;19994;-72
2023/06/08 12:04:33;;;;;;;3.15;1.38;;;24.00;63.00;;;;;;7404452;19;19923;-72
2023/06/08 12:07:10;;;;;;;2.75;1.20;;;24.00;62.30;;;;;;7405120;19;20360;-73
2023/06/08 12:09:39;;;;;;;3.58;1.23;;;24.00;62.30;;;;;;7402932;19;19922;-72
2023/06/08 12:12:11;;;;;;;2.25;1.15;;;24.10;62.30;;;;;;7404701;19;19915;-72
2023/06/08 12:14:45;;;;;;;2.47;0.90;;;24.00;62.20;;;;;;7403926;19;19915;-72
2023/06/08 12:17:17;;;;;;;2.83;1.15;;;24.10;62.20;;;;;;7403028;19;20268;-73
2023/06/08 12:19:47;;;;;;;2.35;0.90;;;24.10;62.10;;;;;;7403522;19;19973;-73
2023/06/08 12:22:16;;;;;;;2.03;1.00;;;24.20;62.20;;;;;;7402634;19;19950;-72
2023/06/08 12:24:45;;;;;;;;;;;24.20;62.10;;;;;;7406349;19;19929;-72
2023/06/08 12:27:14;;;;;;;2.67;1.35;;;24.20;62.10;;;;;;7403098;19;19926;-72
2023/06/08 12:29:44;;;;;;;2.72;0.80;;;24.20;62.00;;;;;;7403167;19;19925;-73
2023/06/08 12:32:16;;;;;;;2.50;1.17;;;24.20;62.00;;;;;;7402857;19;19928;-72
2023/06/08 12:34:45;;;;;;;2.92;0.98;;;24.30;62.00;;;;;;7403683;19;19914;-72
2023/06/08 12:37:14;;;;;;;2.70;1.33;;;24.30;61.90;;;;;;7401432;19;19926;-73
2023/06/08 12:39:43;;;;;;;3.72;1.58;;;24.40;61.90;;;;;;7404079;19;19986;-71
2023/06/08 12:42:12;;;;;;;2.80;1.23;;;24.40;61.70;;;;;;7397389;19;20868;-72
2023/06/08 12:44:41;;;;;;;5.53;2.08;;;24.40;61.60;;;;;;7400829;19;20336;-73
2023/06/08 12:47:10;;;;;;;5.63;2.50;;;24.40;61.20;;;;;;7404114;19;19921;-73
2023/06/08 12:49:42;;;;;;;5.03;1.67;;;24.40;61.20;;;;;;7404341;19;19939;-73
2023/06/08 12:52:11;;;;;;;7.80;2.53;;;24.40;61.00;;;;;;7403054;19;20283;-72
2023/06/08 12:54:43;;;;;;;8.30;2.90;;;24.40;60.60;;;;;;7403287;19;19911;-73
2023/06/08 12:57:12;;;;;;;6.20;2.67;;;24.40;60.40;;;;;;7402057;19;19922;-73
2023/06/08 12:59:41;;;;;;;5.57;2.67;;;24.40;59.90;;;;;;7403711;19;19911;-73
2023/06/08 13:02:10;;;;;;;5.05;2.08;;;24.40;59.80;;;;;;7400497;19;19928;-73
2023/06/08 13:04:42;;;;;;;5.15;2.13;;;24.40;59.60;;;;;;7399944;19;19922;-72
2023/06/08 13:07:11;;;;;;;4.97;2.10;;;24.40;60.30;;;;;;7398259;19;19926;-72
2023/06/08 13:09:40;;;;;;;10.90;2.30;;;24.40;59.50;;;;;;7399682;19;19922;-72
2023/06/08 13:12:11;;;;;;;4.93;2.53;;;24.40;59.10;;;;;;7399163;19;19957;-72
2023/06/08 13:14:41;;;;;;;5.75;2.00;;;24.40;59.20;;;;;;7402284;19;19935;-72
2023/06/08 13:17:10;;;;;;;5.10;1.85;;;24.40;59.30;;;;;;7399482;19;19965;-72